Terminal Aerodrome Forecast
Issued by NWS

Home | Current Version | Previous Version | Text Only | Print | Product List | Glossary On
Versions: 1 2 3 4 5 6 7 8 9 10 11 12
000
FTUS41 KPBZ 281700
TAFBVI
TAF
KBVI 281737Z 2818/2918 31008KT 6SM -DZ OVC014
      TEMPO 2818/2822 4SM -DZ BKN007
     FM282200 30004KT P6SM OVC020
     FM290600 32004KT 6SM BR BKN025
     FM291500 35004KT P6SM OVC100
     FM291700 34005KT P6SM BKN250=

USA.gov is the U.S. government's official web portal to all federal, state and local government web resources and services.